sensor_id;sensor_type;location;lat;lon;timestamp;temperature;humidity
2783;DHT22;1399;47.072;15.452;2023-10-13T00:01:55;16.70;93.30
2783;DHT22;1399;47.072;15.452;2023-10-13T00:04:24;16.60;93.30
2783;DHT22;1399;47.072;15.452;2023-10-13T00:06:54;16.60;93.30
2783;DHT22;1399;47.072;15.452;2023-10-13T00:09:25;16.60;93.30
2783;DHT22;1399;47.072;15.452;2023-10-13T00:11:58;16.60;93.30
2783;DHT22;1399;47.072;15.452;2023-10-13T00:14:24;16.60;93.30
2783;DHT22;1399;47.072;15.452;2023-10-13T00:17:03;16.60;93.30
2783;DHT22;1399;47.072;15.452;2023-10-13T00:19:34;16.60;93.30
2783;DHT22;1399;47.072;15.452;2023-10-13T00:22:16;16.50;93.20
2783;DHT22;1399;47.072;15.452;2023-10-13T00:24:43;16.50;93.20
2783;DHT22;1399;47.072;15.452;2023-10-13T00:27:21;16.60;93.20
2783;DHT22;1399;47.072;15.452;2023-10-13T00:32:48;16.50;93.10
2783;DHT22;1399;47.072;15.452;2023-10-13T00:35:20;16.50;93.10
2783;DHT22;1399;47.072;15.452;2023-10-13T00:38:04;16.50;93.00
2783;DHT22;1399;47.072;15.452;2023-10-13T00:40:39;16.50;93.00
2783;DHT22;1399;47.072;15.452;2023-10-13T00:43:05;16.50;93.00
2783;DHT22;1399;47.072;15.452;2023-10-13T00:45:48;16.40;92.90
2783;DHT22;1399;47.072;15.452;2023-10-13T00:48:29;16.50;92.90
2783;DHT22;1399;47.072;15.452;2023-10-13T00:51:05;16.40;92.90
2783;DHT22;1399;47.072;15.452;2023-10-13T00:53:41;16.40;92.80
2783;DHT22;1399;47.072;15.452;2023-10-13T00:56:10;16.40;92.80
2783;DHT22;1399;47.072;15.452;2023-10-13T00:58:45;16.40;92.80
2783;DHT22;1399;47.072;15.452;2023-10-13T01:01:12;16.40;92.70
2783;DHT22;1399;47.072;15.452;2023-10-13T01:03:51;16.40;92.70
2783;DHT22;1399;47.072;15.452;2023-10-13T01:06:38;16.40;92.70
2783;DHT22;1399;47.072;15.452;2023-10-13T01:09:06;16.40;92.60
2783;DHT22;1399;47.072;15.452;2023-10-13T01:11:48;16.40;92.60
2783;DHT22;1399;47.072;15.452;2023-10-13T01:14:26;16.40;92.60
2783;DHT22;1399;47.072;15.452;2023-10-13T01:16:55;16.30;92.50
2783;DHT22;1399;47.072;15.452;2023-10-13T01:19:24;16.30;92.50
2783;DHT22;1399;47.072;15.452;2023-10-13T01:21:53;16.30;92.40
2783;DHT22;1399;47.072;15.452;2023-10-13T01:24:30;16.40;92.50
2783;DHT22;1399;47.072;15.452;2023-10-13T01:27:06;16.30;92.40
2783;DHT22;1399;47.072;15.452;2023-10-13T01:29:47;16.30;92.40
2783;DHT22;1399;47.072;15.452;2023-10-13T01:32:16;16.30;92.40
2783;DHT22;1399;47.072;15.452;2023-10-13T01:34:42;16.30;92.30
2783;DHT22;1399;47.072;15.452;2023-10-13T01:37:12;16.30;92.30
2783;DHT22;1399;47.072;15.452;2023-10-13T01:39:37;16.30;92.30
2783;DHT22;1399;47.072;15.452;2023-10-13T01:42:03;16.30;92.60
2783;DHT22;1399;47.072;15.452;2023-10-13T01:44:29;16.30;92.20
2783;DHT22;1399;47.072;15.452;2023-10-13T01:46:56;16.30;92.20
2783;DHT22;1399;47.072;15.452;2023-10-13T01:49:25;16.30;92.20
2783;DHT22;1399;47.072;15.452;2023-10-13T01:51:51;16.20;92.20
2783;DHT22;1399;47.072;15.452;2023-10-13T01:54:17;16.30;92.10
2783;DHT22;1399;47.072;15.452;2023-10-13T01:56:43;16.30;92.10
2783;DHT22;1399;47.072;15.452;2023-10-13T01:59:11;16.20;92.10
2783;DHT22;1399;47.072;15.452;2023-10-13T02:01:37;16.20;92.10
2783;DHT22;1399;47.072;15.452;2023-10-13T02:04:04;16.20;92.00
2783;DHT22;1399;47.072;15.452;2023-10-13T02:06:32;16.20;92.00
2783;DHT22;1399;47.072;15.452;2023-10-13T02:09:09;16.20;92.00
2783;DHT22;1399;47.072;15.452;2023-10-13T02:11:52;16.20;91.90
2783;DHT22;1399;47.072;15.452;2023-10-13T02:14:23;16.20;91.90
2783;DHT22;1399;47.072;15.452;2023-10-13T02:16:51;16.20;91.90
2783;DHT22;1399;47.072;15.452;2023-10-13T02:19:21;16.20;91.90
2783;DHT22;1399;47.072;15.452;2023-10-13T02:21:48;16.20;91.90
2783;DHT22;1399;47.072;15.452;2023-10-13T02:24:24;16.20;91.90
2783;DHT22;1399;47.072;15.452;2023-10-13T02:26:56;16.10;91.80
2783;DHT22;1399;47.072;15.452;2023-10-13T02:29:28;16.10;91.80
2783;DHT22;1399;47.072;15.452;2023-10-13T02:31:54;16.10;91.80
2783;DHT22;1399;47.072;15.452;2023-10-13T02:34:23;16.10;91.80
2783;DHT22;1399;47.072;15.452;2023-10-13T02:36:49;16.10;91.80
2783;DHT22;1399;47.072;15.452;2023-10-13T02:39:15;16.00;91.70
2783;DHT22;1399;47.072;15.452;2023-10-13T02:41:42;16.10;91.70
2783;DHT22;1399;47.072;15.452;2023-10-13T02:44:14;16.10;91.70
2783;DHT22;1399;47.072;15.452;2023-10-13T02:46:56;16.10;91.70
2783;DHT22;1399;47.072;15.452;2023-10-13T02:49:26;16.00;91.60
2783;DHT22;1399;47.072;15.452;2023-10-13T02:51:55;16.00;91.60
2783;DHT22;1399;47.072;15.452;2023-10-13T02:54:21;16.00;91.60
2783;DHT22;1399;47.072;15.452;2023-10-13T02:56:47;16.00;91.50
2783;DHT22;1399;47.072;15.452;2023-10-13T02:59:26;16.00;91.50
2783;DHT22;1399;47.072;15.452;2023-10-13T03:02:15;16.00;91.50
2783;DHT22;1399;47.072;15.452;2023-10-13T03:04:52;16.00;91.40
2783;DHT22;1399;47.072;15.452;2023-10-13T03:07:25;16.00;91.30
2783;DHT22;1399;47.072;15.452;2023-10-13T03:09:56;16.00;91.30
2783;DHT22;1399;47.072;15.452;2023-10-13T03:12:39;15.90;91.20
2783;DHT22;1399;47.072;15.452;2023-10-13T03:15:06;15.90;91.20
2783;DHT22;1399;47.072;15.452;2023-10-13T03:17:38;15.90;91.10
2783;DHT22;1399;47.072;15.452;2023-10-13T03:20:10;15.90;91.10
2783;DHT22;1399;47.072;15.452;2023-10-13T03:22:40;15.90;91.10
2783;DHT22;1399;47.072;15.452;2023-10-13T03:25:06;15.90;91.00
2783;DHT22;1399;47.072;15.452;2023-10-13T03:27:35;15.90;91.00
2783;DHT22;1399;47.072;15.452;2023-10-13T03:30:19;15.90;91.00
2783;DHT22;1399;47.072;15.452;2023-10-13T03:32:47;15.90;91.00
2783;DHT22;1399;47.072;15.452;2023-10-13T03:35:19;15.90;91.00
2783;DHT22;1399;47.072;15.452;2023-10-13T03:37:54;15.90;90.90
2783;DHT22;1399;47.072;15.452;2023-10-13T03:40:21;15.80;90.90
2783;DHT22;1399;47.072;15.452;2023-10-13T03:42:57;15.90;90.90
2783;DHT22;1399;47.072;15.452;2023-10-13T03:45:34;15.90;90.90
2783;DHT22;1399;47.072;15.452;2023-10-13T03:50:52;15.90;90.80
2783;DHT22;1399;47.072;15.452;2023-10-13T03:53:44;15.90;90.80
2783;DHT22;1399;47.072;15.452;2023-10-13T03:56:23;15.90;90.80
2783;DHT22;1399;47.072;15.452;2023-10-13T03:58:54;15.80;90.70
2783;DHT22;1399;47.072;15.452;2023-10-13T04:01:23;15.80;90.70
2783;DHT22;1399;47.072;15.452;2023-10-13T04:04:01;15.80;90.70
2783;DHT22;1399;47.072;15.452;2023-10-13T04:06:34;15.80;90.60
2783;DHT22;1399;47.072;15.452;2023-10-13T04:14:45;15.80;90.60
2783;DHT22;1399;47.072;15.452;2023-10-13T04:17:23;15.80;90.60
2783;DHT22;1399;47.072;15.452;2023-10-13T04:19:58;15.80;90.60
2783;DHT22;1399;47.072;15.452;2023-10-13T04:22:36;15.80;90.60
2783;DHT22;1399;47.072;15.452;2023-10-13T04:25:23;15.80;90.50
2783;DHT22;1399;47.072;15.452;2023-10-13T04:28:11;15.80;90.50
2783;DHT22;1399;47.072;15.452;2023-10-13T04:36:13;15.80;90.50
2783;DHT22;1399;47.072;15.452;2023-10-13T04:38:46;15.80;90.90
2783;DHT22;1399;47.072;15.452;2023-10-13T04:41:29;15.80;90.40
2783;DHT22;1399;47.072;15.452;2023-10-13T04:44:08;15.70;90.40
2783;DHT22;1399;47.072;15.452;2023-10-13T04:46:53;15.70;90.30
2783;DHT22;1399;47.072;15.452;2023-10-13T04:49:23;15.70;90.30
2783;DHT22;1399;47.072;15.452;2023-10-13T04:51:59;15.70;90.30
2783;DHT22;1399;47.072;15.452;2023-10-13T04:54:45;15.70;90.30
2783;DHT22;1399;47.072;15.452;2023-10-13T04:57:17;15.70;90.30
2783;DHT22;1399;47.072;15.452;2023-10-13T04:59:50;15.70;90.30
2783;DHT22;1399;47.072;15.452;2023-10-13T05:02:43;15.70;90.20
2783;DHT22;1399;47.072;15.452;2023-10-13T05:05:28;15.70;90.20
2783;DHT22;1399;47.072;15.452;2023-10-13T05:08:32;15.70;90.20
2783;DHT22;1399;47.072;15.452;2023-10-13T05:11:16;15.70;90.20
2783;DHT22;1399;47.072;15.452;2023-10-13T05:14:01;15.70;90.20
2783;DHT22;1399;47.072;15.452;2023-10-13T05:16:45;15.70;90.20
2783;DHT22;1399;47.072;15.452;2023-10-13T05:19:29;15.70;90.20
2783;DHT22;1399;47.072;15.452;2023-10-13T05:22:14;15.70;90.20
2783;DHT22;1399;47.072;15.452;2023-10-13T05:24:58;15.70;90.20
2783;DHT22;1399;47.072;15.452;2023-10-13T05:27:42;15.70;90.20
2783;DHT22;1399;47.072;15.452;2023-10-13T05:30:26;15.70;90.20
2783;DHT22;1399;47.072;15.452;2023-10-13T05:33:11;15.70;90.20
2783;DHT22;1399;47.072;15.452;2023-10-13T05:35:55;15.70;90.20
2783;DHT22;1399;47.072;15.452;2023-10-13T05:38:39;15.70;90.20
2783;DHT22;1399;47.072;15.452;2023-10-13T05:41:27;15.70;90.20
2783;DHT22;1399;47.072;15.452;2023-10-13T05:44:12;15.70;90.20
2783;DHT22;1399;47.072;15.452;2023-10-13T05:46:56;15.70;90.20
2783;DHT22;1399;47.072;15.452;2023-10-13T05:49:40;15.80;90.30
2783;DHT22;1399;47.072;15.452;2023-10-13T05:52:16;15.80;90.20
2783;DHT22;1399;47.072;15.452;2023-10-13T05:54:46;15.80;90.20
2783;DHT22;1399;47.072;15.452;2023-10-13T05:57:30;15.80;90.20
2783;DHT22;1399;47.072;15.452;2023-10-13T06:00:11;15.80;90.10
2783;DHT22;1399;47.072;15.452;2023-10-13T06:02:55;15.80;90.10
2783;DHT22;1399;47.072;15.452;2023-10-13T06:05:39;15.90;90.20
2783;DHT22;1399;47.072;15.452;2023-10-13T06:08:23;15.90;90.20
2783;DHT22;1399;47.072;15.452;2023-10-13T06:11:08;15.90;90.20
2783;DHT22;1399;47.072;15.452;2023-10-13T06:13:51;15.90;90.10
2783;DHT22;1399;47.072;15.452;2023-10-13T06:16:36;16.00;90.60
2783;DHT22;1399;47.072;15.452;2023-10-13T06:19:20;16.00;90.10
2783;DHT22;1399;47.072;15.452;2023-10-13T06:22:04;16.10;90.10
2783;DHT22;1399;47.072;15.452;2023-10-13T06:24:48;16.10;90.10
2783;DHT22;1399;47.072;15.452;2023-10-13T06:27:32;16.10;90.00
2783;DHT22;1399;47.072;15.452;2023-10-13T06:30:16;16.20;90.00
2783;DHT22;1399;47.072;15.452;2023-10-13T06:32:43;16.20;90.00
2783;DHT22;1399;47.072;15.452;2023-10-13T06:35:11;16.30;90.00
2783;DHT22;1399;47.072;15.452;2023-10-13T06:37:50;16.40;90.00
2783;DHT22;1399;47.072;15.452;2023-10-13T06:40:16;16.40;90.30
2783;DHT22;1399;47.072;15.452;2023-10-13T06:42:50;16.40;89.80
2783;DHT22;1399;47.072;15.452;2023-10-13T06:45:18;16.50;89.80
2783;DHT22;1399;47.072;15.452;2023-10-13T06:47:46;16.50;89.80
2783;DHT22;1399;47.072;15.452;2023-10-13T06:50:12;16.50;89.70
2783;DHT22;1399;47.072;15.452;2023-10-13T06:52:42;16.60;89.70
2783;DHT22;1399;47.072;15.452;2023-10-13T06:55:09;16.60;89.70
2783;DHT22;1399;47.072;15.452;2023-10-13T06:57:45;16.60;89.60
2783;DHT22;1399;47.072;15.452;2023-10-13T07:00:12;16.70;89.70
2783;DHT22;1399;47.072;15.452;2023-10-13T07:03:13;16.70;89.70
2783;DHT22;1399;47.072;15.452;2023-10-13T07:05:45;16.70;89.60
2783;DHT22;1399;47.072;15.452;2023-10-13T07:08:15;16.70;89.50
2783;DHT22;1399;47.072;15.452;2023-10-13T07:10:52;16.70;89.60
2783;DHT22;1399;47.072;15.452;2023-10-13T07:13:27;16.70;89.60
2783;DHT22;1399;47.072;15.452;2023-10-13T07:15:53;16.70;89.70
2783;DHT22;1399;47.072;15.452;2023-10-13T07:18:26;16.70;89.80
2783;DHT22;1399;47.072;15.452;2023-10-13T07:20:51;16.70;89.90
2783;DHT22;1399;47.072;15.452;2023-10-13T07:23:23;16.70;90.00
2783;DHT22;1399;47.072;15.452;2023-10-13T07:25:54;16.70;90.00
2783;DHT22;1399;47.072;15.452;2023-10-13T07:28:21;16.80;90.10
2783;DHT22;1399;47.072;15.452;2023-10-13T07:30:47;16.80;90.10
2783;DHT22;1399;47.072;15.452;2023-10-13T07:33:33;16.80;90.10
2783;DHT22;1399;47.072;15.452;2023-10-13T07:36:01;16.80;90.20
2783;DHT22;1399;47.072;15.452;2023-10-13T07:38:37;16.80;90.20
2783;DHT22;1399;47.072;15.452;2023-10-13T07:41:03;16.90;90.20
2783;DHT22;1399;47.072;15.452;2023-10-13T07:43:34;16.90;90.20
2783;DHT22;1399;47.072;15.452;2023-10-13T07:46:03;16.90;90.20
2783;DHT22;1399;47.072;15.452;2023-10-13T07:48:36;17.00;90.30
2783;DHT22;1399;47.072;15.452;2023-10-13T07:51:04;17.00;90.20
2783;DHT22;1399;47.072;15.452;2023-10-13T07:53:31;17.00;90.20
2783;DHT22;1399;47.072;15.452;2023-10-13T07:56:00;17.00;90.20
2783;DHT22;1399;47.072;15.452;2023-10-13T07:58:31;17.10;90.20
2783;DHT22;1399;47.072;15.452;2023-10-13T08:00:57;17.10;90.10
2783;DHT22;1399;47.072;15.452;2023-10-13T08:03:35;17.10;90.10
2783;DHT22;1399;47.072;15.452;2023-10-13T08:06:17;17.20;90.10
2783;DHT22;1399;47.072;15.452;2023-10-13T08:08:43;17.20;90.00
2783;DHT22;1399;47.072;15.452;2023-10-13T08:11:17;17.20;90.00
2783;DHT22;1399;47.072;15.452;2023-10-13T08:13:55;17.30;90.00
2783;DHT22;1399;47.072;15.452;2023-10-13T08:16:33;17.30;89.80
2783;DHT22;1399;47.072;15.452;2023-10-13T08:19:25;17.30;89.80
2783;DHT22;1399;47.072;15.452;2023-10-13T08:22:06;17.40;89.70
2783;DHT22;1399;47.072;15.452;2023-10-13T08:24:46;17.40;89.50
2783;DHT22;1399;47.072;15.452;2023-10-13T08:27:13;17.40;89.50
2783;DHT22;1399;47.072;15.452;2023-10-13T08:29:40;17.50;89.40
2783;DHT22;1399;47.072;15.452;2023-10-13T08:32:26;17.50;89.40
2783;DHT22;1399;47.072;15.452;2023-10-13T08:34:53;17.50;89.40
2783;DHT22;1399;47.072;15.452;2023-10-13T08:37:19;17.50;89.30
2783;DHT22;1399;47.072;15.452;2023-10-13T08:39:49;17.60;89.40
2783;DHT22;1399;47.072;15.452;2023-10-13T08:42:44;17.60;89.40
2783;DHT22;1399;47.072;15.452;2023-10-13T08:45:12;17.60;89.30
2783;DHT22;1399;47.072;15.452;2023-10-13T08:47:50;17.70;89.40
2783;DHT22;1399;47.072;15.452;2023-10-13T08:50:23;17.70;89.40
2783;DHT22;1399;47.072;15.452;2023-10-13T08:53:30;17.70;89.40
2783;DHT22;1399;47.072;15.452;2023-10-13T08:58:47;17.80;89.30
2783;DHT22;1399;47.072;15.452;2023-10-13T09:01:23;17.80;89.30
2783;DHT22;1399;47.072;15.452;2023-10-13T09:04:15;17.80;89.30
2783;DHT22;1399;47.072;15.452;2023-10-13T09:09:23;17.90;89.50
2783;DHT22;1399;47.072;15.452;2023-10-13T09:11:54;17.90;89.60
2783;DHT22;1399;47.072;15.452;2023-10-13T09:14:34;17.90;89.60
2783;DHT22;1399;47.072;15.452;2023-10-13T09:17:03;18.00;89.80
2783;DHT22;1399;47.072;15.452;2023-10-13T09:19:51;18.00;89.80
2783;DHT22;1399;47.072;15.452;2023-10-13T09:22:27;18.00;89.90
2783;DHT22;1399;47.072;15.452;2023-10-13T09:25:00;18.00;89.90
2783;DHT22;1399;47.072;15.452;2023-10-13T09:27:30;18.10;90.00
2783;DHT22;1399;47.072;15.452;2023-10-13T09:30:02;18.10;90.00
2783;DHT22;1399;47.072;15.452;2023-10-13T09:33:02;18.10;90.00
2783;DHT22;1399;47.072;15.452;2023-10-13T09:35:34;18.10;90.00
2783;DHT22;1399;47.072;15.452;2023-10-13T09:38:03;18.20;90.10
2783;DHT22;1399;47.072;15.452;2023-10-13T09:40:30;18.20;90.10
2783;DHT22;1399;47.072;15.452;2023-10-13T09:43:01;18.20;90.10
2783;DHT22;1399;47.072;15.452;2023-10-13T09:45:33;18.20;90.10
2783;DHT22;1399;47.072;15.452;2023-10-13T09:48:10;18.20;90.10
2783;DHT22;1399;47.072;15.452;2023-10-13T09:50:46;18.30;90.20
2783;DHT22;1399;47.072;15.452;2023-10-13T09:53:12;18.30;90.20
2783;DHT22;1399;47.072;15.452;2023-10-13T09:55:50;18.30;90.30
2783;DHT22;1399;47.072;15.452;2023-10-13T09:58:18;18.30;90.30
2783;DHT22;1399;47.072;15.452;2023-10-13T10:00:57;18.30;90.30
2783;DHT22;1399;47.072;15.452;2023-10-13T10:03:32;18.30;90.40
2783;DHT22;1399;47.072;15.452;2023-10-13T10:06:02;18.40;90.80
2783;DHT22;1399;47.072;15.452;2023-10-13T10:08:43;18.40;90.50
2783;DHT22;1399;47.072;15.452;2023-10-13T10:11:42;18.40;90.60
2783;DHT22;1399;47.072;15.452;2023-10-13T10:14:16;18.40;90.70
2783;DHT22;1399;47.072;15.452;2023-10-13T10:17:06;18.50;90.80
2783;DHT22;1399;47.072;15.452;2023-10-13T10:19:45;18.50;90.90
2783;DHT22;1399;47.072;15.452;2023-10-13T10:22:10;18.50;90.90
2783;DHT22;1399;47.072;15.452;2023-10-13T10:24:43;18.50;91.00
2783;DHT22;1399;47.072;15.452;2023-10-13T10:27:10;18.50;91.00
2783;DHT22;1399;47.072;15.452;2023-10-13T10:29:54;18.50;91.10
2783;DHT22;1399;47.072;15.452;2023-10-13T10:32:20;18.60;91.20
2783;DHT22;1399;47.072;15.452;2023-10-13T10:34:47;18.60;91.30
2783;DHT22;1399;47.072;15.452;2023-10-13T10:37:13;18.70;91.30
2783;DHT22;1399;47.072;15.452;2023-10-13T10:39:39;18.70;91.30
2783;DHT22;1399;47.072;15.452;2023-10-13T10:42:13;18.90;91.20
2783;DHT22;1399;47.072;15.452;2023-10-13T10:44:41;19.00;91.10
2783;DHT22;1399;47.072;15.452;2023-10-13T10:47:14;19.10;91.10
2783;DHT22;1399;47.072;15.452;2023-10-13T10:50:02;19.10;91.00
2783;DHT22;1399;47.072;15.452;2023-10-13T10:52:45;19.10;91.00
2783;DHT22;1399;47.072;15.452;2023-10-13T10:55:12;19.20;91.00
2783;DHT22;1399;47.072;15.452;2023-10-13T10:57:45;19.30;91.00
2783;DHT22;1399;47.072;15.452;2023-10-13T11:00:23;19.40;90.90
2783;DHT22;1399;47.072;15.452;2023-10-13T11:02:55;19.40;91.00
2783;DHT22;1399;47.072;15.452;2023-10-13T11:05:22;19.30;91.00
2783;DHT22;1399;47.072;15.452;2023-10-13T11:07:50;19.30;91.20
2783;DHT22;1399;47.072;15.452;2023-10-13T11:10:19;19.30;91.30
2783;DHT22;1399;47.072;15.452;2023-10-13T11:12:58;19.20;91.40
2783;DHT22;1399;47.072;15.452;2023-10-13T11:15:47;19.20;91.50
2783;DHT22;1399;47.072;15.452;2023-10-13T11:18:14;19.20;91.70
2783;DHT22;1399;47.072;15.452;2023-10-13T11:20:49;19.10;91.70
2783;DHT22;1399;47.072;15.452;2023-10-13T11:23:21;19.10;91.80
2783;DHT22;1399;47.072;15.452;2023-10-13T11:26:00;19.20;91.90
2783;DHT22;1399;47.072;15.452;2023-10-13T11:28:26;19.10;91.90
2783;DHT22;1399;47.072;15.452;2023-10-13T11:30:57;19.10;91.90
2783;DHT22;1399;47.072;15.452;2023-10-13T11:33:45;19.10;92.00
2783;DHT22;1399;47.072;15.452;2023-10-13T11:36:15;19.10;92.00
2783;DHT22;1399;47.072;15.452;2023-10-13T11:38:44;19.20;92.10
2783;DHT22;1399;47.072;15.452;2023-10-13T11:41:13;19.20;92.10
2783;DHT22;1399;47.072;15.452;2023-10-13T11:43:46;19.20;92.20
2783;DHT22;1399;47.072;15.452;2023-10-13T11:46:13;19.20;92.10
2783;DHT22;1399;47.072;15.452;2023-10-13T11:48:42;19.20;92.20
2783;DHT22;1399;47.072;15.452;2023-10-13T11:51:10;19.20;92.20
2783;DHT22;1399;47.072;15.452;2023-10-13T11:53:56;19.20;92.20
2783;DHT22;1399;47.072;15.452;2023-10-13T11:56:22;19.20;92.20
2783;DHT22;1399;47.072;15.452;2023-10-13T11:58:48;19.20;92.20
2783;DHT22;1399;47.072;15.452;2023-10-13T12:01:14;19.20;92.30
2783;DHT22;1399;47.072;15.452;2023-10-13T12:06:24;19.20;92.30
2783;DHT22;1399;47.072;15.452;2023-10-13T12:09:09;19.30;92.40
2783;DHT22;1399;47.072;15.452;2023-10-13T12:11:38;19.20;92.30
2783;DHT22;1399;47.072;15.452;2023-10-13T12:14:09;19.20;92.30
2783;DHT22;1399;47.072;15.452;2023-10-13T12:16:53;19.30;92.40
2783;DHT22;1399;47.072;15.452;2023-10-13T12:19:23;19.30;92.40
2783;DHT22;1399;47.072;15.452;2023-10-13T12:21:56;19.30;92.30
2783;DHT22;1399;47.072;15.452;2023-10-13T12:24:23;19.30;92.30
2783;DHT22;1399;47.072;15.452;2023-10-13T12:27:02;19.30;92.40
2783;DHT22;1399;47.072;15.452;2023-10-13T12:29:29;19.30;92.40
2783;DHT22;1399;47.072;15.452;2023-10-13T12:31:55;19.30;92.40
2783;DHT22;1399;47.072;15.452;2023-10-13T12:34:37;19.30;92.40
2783;DHT22;1399;47.072;15.452;2023-10-13T12:37:22;19.30;92.40
2783;DHT22;1399;47.072;15.452;2023-10-13T12:42:51;19.30;92.40
2783;DHT22;1399;47.072;15.452;2023-10-13T12:45:39;19.30;92.40
2783;DHT22;1399;47.072;15.452;2023-10-13T12:48:24;19.30;92.40
2783;DHT22;1399;47.072;15.452;2023-10-13T12:51:08;19.30;92.40
2783;DHT22;1399;47.072;15.452;2023-10-13T12:53:47;19.30;92.40
2783;DHT22;1399;47.072;15.452;2023-10-13T12:56:14;19.30;92.40
2783;DHT22;1399;47.072;15.452;2023-10-13T12:58:44;19.30;92.40
2783;DHT22;1399;47.072;15.452;2023-10-13T13:03:47;19.30;92.40
2783;DHT22;1399;47.072;15.452;2023-10-13T13:06:19;19.30;92.40
2783;DHT22;1399;47.072;15.452;2023-10-13T13:08:59;19.30;92.40
2783;DHT22;1399;47.072;15.452;2023-10-13T13:11:26;19.30;92.40
2783;DHT22;1399;47.072;15.452;2023-10-13T13:13:55;19.30;92.30
2783;DHT22;1399;47.072;15.452;2023-10-13T13:16:20;19.30;92.30
2783;DHT22;1399;47.072;15.452;2023-10-13T13:18:56;19.30;92.30
2783;DHT22;1399;47.072;15.452;2023-10-13T13:21:21;19.30;92.30
2783;DHT22;1399;47.072;15.452;2023-10-13T13:23:53;19.30;92.30
2783;DHT22;1399;47.072;15.452;2023-10-13T13:26:22;19.30;92.30
2783;DHT22;1399;47.072;15.452;2023-10-13T13:28:48;19.30;92.30
2783;DHT22;1399;47.072;15.452;2023-10-13T13:31:18;19.30;92.30
2783;DHT22;1399;47.072;15.452;2023-10-13T13:33:43;19.30;92.30
2783;DHT22;1399;47.072;15.452;2023-10-13T13:36:12;19.40;92.30
2783;DHT22;1399;47.072;15.452;2023-10-13T13:38:44;19.30;92.20
2783;DHT22;1399;47.072;15.452;2023-10-13T13:41:16;19.30;92.20
2783;DHT22;1399;47.072;15.452;2023-10-13T13:43:46;19.40;92.30
2783;DHT22;1399;47.072;15.452;2023-10-13T13:46:19;19.40;92.30
2783;DHT22;1399;47.072;15.452;2023-10-13T13:48:45;19.40;92.30
2783;DHT22;1399;47.072;15.452;2023-10-13T13:51:14;19.40;92.30
2783;DHT22;1399;47.072;15.452;2023-10-13T13:53:45;19.40;92.10
2783;DHT22;1399;47.072;15.452;2023-10-13T13:56:14;19.40;92.20
2783;DHT22;1399;47.072;15.452;2023-10-13T14:01:09;19.40;92.10
2783;DHT22;1399;47.072;15.452;2023-10-13T14:03:40;19.40;91.90
2783;DHT22;1399;47.072;15.452;2023-10-13T14:06:15;19.40;91.90
2783;DHT22;1399;47.072;15.452;2023-10-13T14:08:50;19.40;92.00
2783;DHT22;1399;47.072;15.452;2023-10-13T14:11:21;19.40;91.90
2783;DHT22;1399;47.072;15.452;2023-10-13T14:13:49;19.50;92.00
2783;DHT22;1399;47.072;15.452;2023-10-13T14:16:20;19.40;91.90
2783;DHT22;1399;47.072;15.452;2023-10-13T14:18:52;19.40;91.90
2783;DHT22;1399;47.072;15.452;2023-10-13T14:21:18;19.40;91.90
2783;DHT22;1399;47.072;15.452;2023-10-13T14:23:51;19.50;91.90
2783;DHT22;1399;47.072;15.452;2023-10-13T14:26:20;19.50;91.90
2783;DHT22;1399;47.072;15.452;2023-10-13T14:28:48;19.50;91.80
2783;DHT22;1399;47.072;15.452;2023-10-13T14:31:31;19.50;91.80
2783;DHT22;1399;47.072;15.452;2023-10-13T14:33:57;19.50;91.80
2783;DHT22;1399;47.072;15.452;2023-10-13T14:36:23;19.50;91.70
2783;DHT22;1399;47.072;15.452;2023-10-13T14:38:49;19.50;91.70
2783;DHT22;1399;47.072;15.452;2023-10-13T14:41:18;19.50;91.70
2783;DHT22;1399;47.072;15.452;2023-10-13T14:43:45;19.50;91.60
2783;DHT22;1399;47.072;15.452;2023-10-13T14:46:18;19.50;91.60
2783;DHT22;1399;47.072;15.452;2023-10-13T14:48:52;19.60;91.70
2783;DHT22;1399;47.072;15.452;2023-10-13T14:51:18;19.50;91.90
2783;DHT22;1399;47.072;15.452;2023-10-13T14:53:44;19.60;91.60
2783;DHT22;1399;47.072;15.452;2023-10-13T14:56:14;19.60;91.60
2783;DHT22;1399;47.072;15.452;2023-10-13T14:58:41;19.60;91.60
2783;DHT22;1399;47.072;15.452;2023-10-13T15:01:20;19.70;91.60
2783;DHT22;1399;47.072;15.452;2023-10-13T15:03:48;19.60;91.90
2783;DHT22;1399;47.072;15.452;2023-10-13T15:06:27;19.60;91.50
2783;DHT22;1399;47.072;15.452;2023-10-13T15:08:59;19.60;91.90
2783;DHT22;1399;47.072;15.452;2023-10-13T15:11:27;19.60;91.50
2783;DHT22;1399;47.072;15.452;2023-10-13T15:14:02;19.60;91.40
2783;DHT22;1399;47.072;15.452;2023-10-13T15:16:29;19.60;91.40
2783;DHT22;1399;47.072;15.452;2023-10-13T15:18:55;19.60;91.40
2783;DHT22;1399;47.072;15.452;2023-10-13T15:21:25;19.60;91.40
2783;DHT22;1399;47.072;15.452;2023-10-13T15:24:03;19.60;91.40
2783;DHT22;1399;47.072;15.452;2023-10-13T15:26:32;19.60;91.40
2783;DHT22;1399;47.072;15.452;2023-10-13T15:29:04;19.70;91.50
2783;DHT22;1399;47.072;15.452;2023-10-13T15:31:35;19.60;91.80
2783;DHT22;1399;47.072;15.452;2023-10-13T15:34:01;19.60;91.40
2783;DHT22;1399;47.072;15.452;2023-10-13T15:36:39;19.60;91.50
2783;DHT22;1399;47.072;15.452;2023-10-13T15:39:06;19.60;91.50
2783;DHT22;1399;47.072;15.452;2023-10-13T15:41:34;19.60;91.50
2783;DHT22;1399;47.072;15.452;2023-10-13T15:43:59;19.60;91.50
2783;DHT22;1399;47.072;15.452;2023-10-13T15:46:26;19.60;91.50
2783;DHT22;1399;47.072;15.452;2023-10-13T15:48:53;19.60;91.50
2783;DHT22;1399;47.072;15.452;2023-10-13T15:51:19;19.60;91.50
2783;DHT22;1399;47.072;15.452;2023-10-13T15:53:45;19.60;91.50
2783;DHT22;1399;47.072;15.452;2023-10-13T15:56:13;19.60;91.50
2783;DHT22;1399;47.072;15.452;2023-10-13T16:01:14;19.60;91.50
2783;DHT22;1399;47.072;15.452;2023-10-13T16:03:44;19.50;91.50
2783;DHT22;1399;47.072;15.452;2023-10-13T16:06:18;19.60;91.60
2783;DHT22;1399;47.072;15.452;2023-10-13T16:08:45;19.60;91.60
2783;DHT22;1399;47.072;15.452;2023-10-13T16:11:14;19.50;91.50
2783;DHT22;1399;47.072;15.452;2023-10-13T16:13:46;19.50;91.60
2783;DHT22;1399;47.072;15.452;2023-10-13T16:18:43;19.50;91.60
2783;DHT22;1399;47.072;15.452;2023-10-13T16:21:10;19.50;91.70
2783;DHT22;1399;47.072;15.452;2023-10-13T16:23:38;19.50;91.70
2783;DHT22;1399;47.072;15.452;2023-10-13T16:26:05;19.50;92.10
2783;DHT22;1399;47.072;15.452;2023-10-13T16:28:34;19.40;91.70
2783;DHT22;1399;47.072;15.452;2023-10-13T16:31:05;19.40;91.70
2783;DHT22;1399;47.072;15.452;2023-10-13T16:33:31;19.40;91.70
2783;DHT22;1399;47.072;15.452;2023-10-13T16:35:58;19.40;91.80
2783;DHT22;1399;47.072;15.452;2023-10-13T16:38:24;19.40;91.80
2783;DHT22;1399;47.072;15.452;2023-10-13T16:40:53;19.40;91.80
2783;DHT22;1399;47.072;15.452;2023-10-13T16:43:20;19.40;91.90
2783;DHT22;1399;47.072;15.452;2023-10-13T16:45:46;19.40;91.90
2783;DHT22;1399;47.072;15.452;2023-10-13T16:48:12;19.30;91.90
2783;DHT22;1399;47.072;15.452;2023-10-13T16:50:43;19.30;92.00
2783;DHT22;1399;47.072;15.452;2023-10-13T16:53:10;19.30;92.00
2783;DHT22;1399;47.072;15.452;2023-10-13T16:55:36;19.30;92.10
2783;DHT22;1399;47.072;15.452;2023-10-13T16:58:03;19.30;92.20
2783;DHT22;1399;47.072;15.452;2023-10-13T17:00:29;19.30;92.20
2783;DHT22;1399;47.072;15.452;2023-10-13T17:02:56;19.30;92.30